createdAt,value
2019-02-17T00:01:09.250Z,23.43
2019-02-17T00:03:35.905Z,23.42
2019-02-17T00:06:02.581Z,23.39
2019-02-17T00:08:29.293Z,23.41
2019-02-17T00:10:55.991Z,23.39
2019-02-17T00:13:22.689Z,23.43
2019-02-17T00:15:49.413Z,23.34
2019-02-17T00:18:16.095Z,23.35
2019-02-17T00:20:42.738Z,23.34
2019-02-17T00:23:09.443Z,23.34
2019-02-17T00:25:36.106Z,23.34
2019-02-17T00:28:02.776Z,23.36
2019-02-17T00:30:29.447Z,23.33
2019-02-17T00:32:56.158Z,23.35
2019-02-17T00:35:22.843Z,23.33
2019-02-17T00:37:49.500Z,23.15
2019-02-17T00:40:16.146Z,23.04
2019-02-17T00:42:42.858Z,23.05
2019-02-17T00:45:09.523Z,23.08
2019-02-17T00:47:36.168Z,23.08
2019-02-17T00:50:02.826Z,23.14
2019-02-17T00:52:29.496Z,23.12
2019-02-17T00:54:56.228Z,23.21
2019-02-17T00:57:22.881Z,23.17
2019-02-17T00:59:49.542Z,23.18
2019-02-17T01:02:16.198Z,23.23
2019-02-17T01:04:42.868Z,23.20
2019-02-17T01:07:09.645Z,23.24
2019-02-17T01:09:36.436Z,23.22
2019-02-17T01:12:03.102Z,23.21
2019-02-17T01:14:29.790Z,23.17
2019-02-17T01:16:56.459Z,23.19
2019-02-17T01:19:23.165Z,23.17
2019-02-17T01:21:49.823Z,23.21
2019-02-17T01:24:16.476Z,23.18
2019-02-17T01:26:43.142Z,23.21
2019-02-17T01:29:19.796Z,23.18
2019-02-17T01:31:36.494Z,23.24
2019-02-17T01:34:03.148Z,23.17
2019-02-17T01:36:29.797Z,23.21
2019-02-17T01:41:22.770Z,23.21
2019-02-17T01:43:49.415Z,23.19
2019-02-17T01:46:16.114Z,23.05
2019-02-17T01:48:42.790Z,22.95
2019-02-17T01:51:09.628Z,22.89
2019-02-17T01:53:36.296Z,22.94
2019-02-17T01:56:02.951Z,22.97
2019-02-17T01:58:29.627Z,23.00
2019-02-17T02:00:56.292Z,23.00
2019-02-17T02:03:23.006Z,23.03
2019-02-17T02:05:49.651Z,23.10
2019-02-17T02:08:16.313Z,23.13
2019-02-17T02:10:43.012Z,23.12
2019-02-17T02:13:09.687Z,23.08
2019-02-17T02:15:36.340Z,23.08
2019-02-17T02:18:03.003Z,23.05
2019-02-17T02:20:29.666Z,23.10
2019-02-17T02:22:56.341Z,23.06
2019-02-17T02:25:22.982Z,23.08
2019-02-17T02:27:49.675Z,23.10
2019-02-17T02:30:17.600Z,23.10
2019-02-17T02:32:43.067Z,23.09
2019-02-17T02:35:09.699Z,23.10
2019-02-17T02:37:36.405Z,23.04
2019-02-17T02:40:03.057Z,23.07
2019-02-17T02:42:29.896Z,23.04
2019-02-17T02:44:56.599Z,23.07
2019-02-17T02:47:23.306Z,23.08
2019-02-17T02:49:49.925Z,23.04
2019-02-17T02:52:16.627Z,23.09
2019-02-17T02:54:43.279Z,23.09
2019-02-17T02:57:09.939Z,23.04
2019-02-17T02:59:36.635Z,23.10
2019-02-17T03:02:03.334Z,23.10
2019-02-17T03:04:29.974Z,23.07
2019-02-17T03:06:56.633Z,23.04
2019-02-17T03:09:23.294Z,23.07
2019-02-17T03:11:50.022Z,23.08
2019-02-17T03:14:16.749Z,23.06
2019-02-17T03:16:46.227Z,23.04
2019-02-17T03:19:12.900Z,22.98
2019-02-17T03:21:39.571Z,22.79
2019-02-17T03:24:06.285Z,22.75
2019-02-17T03:26:32.945Z,22.78
2019-02-17T03:28:59.606Z,22.77
2019-02-17T03:31:26.300Z,22.79
2019-02-17T03:33:52.946Z,22.87
2019-02-17T03:36:19.593Z,22.90
2019-02-17T03:38:46.271Z,22.91
2019-02-17T03:41:12.936Z,22.88
2019-02-17T03:43:39.604Z,22.94
2019-02-17T03:46:06.243Z,22.94
2019-02-17T03:48:32.964Z,22.91
2019-02-17T03:50:59.605Z,22.94
2019-02-17T03:53:26.279Z,22.95
2019-02-17T03:55:52.954Z,22.97
2019-02-17T03:58:19.641Z,22.95
2019-02-17T04:00:46.288Z,22.98
2019-02-17T04:03:12.953Z,22.96
2019-02-17T04:05:39.602Z,22.94
2019-02-17T04:08:06.267Z,22.83
2019-02-17T04:10:32.984Z,22.71
2019-02-17T04:12:59.704Z,22.66
2019-02-17T04:15:26.361Z,22.71
2019-02-17T04:17:53.023Z,22.74
2019-02-17T04:20:19.737Z,22.85
2019-02-17T04:22:46.462Z,22.85
2019-02-17T04:25:14.221Z,22.82
2019-02-17T04:27:40.861Z,22.82
2019-02-17T04:30:07.566Z,22.83
2019-02-17T04:32:34.283Z,22.82
2019-02-17T04:35:00.918Z,22.86
2019-02-17T04:37:27.650Z,22.85
2019-02-17T04:39:54.301Z,22.87
2019-02-17T04:42:20.943Z,22.84
2019-02-17T04:44:47.643Z,22.87
2019-02-17T04:47:14.287Z,22.81
2019-02-17T04:49:40.968Z,22.84
2019-02-17T04:52:07.637Z,22.83
2019-02-17T04:54:34.318Z,22.88
2019-02-17T04:57:00.979Z,22.84
2019-02-17T04:59:27.693Z,22.87
2019-02-17T05:01:54.361Z,22.88
2019-02-17T05:04:21.038Z,22.85
2019-02-17T05:06:47.683Z,22.83
2019-02-17T05:09:14.423Z,22.85
2019-02-17T05:11:41.183Z,22.87
2019-02-17T05:14:07.864Z,22.84
2019-02-17T05:16:34.545Z,22.85
2019-02-17T05:19:01.265Z,22.84
2019-02-17T05:21:27.914Z,22.81
2019-02-17T05:23:54.631Z,22.78
2019-02-17T05:26:21.308Z,22.83
2019-02-17T05:28:47.978Z,22.81
2019-02-17T05:31:14.682Z,22.58
2019-02-17T05:33:41.353Z,22.52
2019-02-17T05:36:08.053Z,22.57
2019-02-17T05:38:34.718Z,22.59
2019-02-17T05:41:01.423Z,22.70
2019-02-17T05:43:28.132Z,22.72
2019-02-17T05:45:54.791Z,22.89
2019-02-17T05:48:21.456Z,22.91
2019-02-17T05:50:48.148Z,22.99
2019-02-17T05:53:14.832Z,23.04
2019-02-17T05:55:41.487Z,23.02
2019-02-17T05:58:08.237Z,22.99
2019-02-17T06:00:34.901Z,23.33
2019-02-17T06:03:01.547Z,23.43
2019-02-17T06:05:28.378Z,23.27
2019-02-17T06:07:55.026Z,23.43
2019-02-17T06:10:21.760Z,23.57
2019-02-17T06:12:48.386Z,23.35
2019-02-17T06:15:15.044Z,22.98
2019-02-17T06:17:41.743Z,22.75
2019-02-17T06:20:08.408Z,22.75
2019-02-17T06:22:35.144Z,22.87
2019-02-17T06:25:01.791Z,23.14
2019-02-17T06:27:28.522Z,23.25
2019-02-17T06:29:55.209Z,23.35
2019-02-17T06:32:21.873Z,23.43
2019-02-17T06:34:48.538Z,23.45
2019-02-17T06:37:15.253Z,23.51
2019-02-17T06:39:41.958Z,23.57
2019-02-17T06:42:08.645Z,23.65
2019-02-17T06:44:35.311Z,23.71
2019-02-17T06:47:01.965Z,23.77
2019-02-17T06:49:28.653Z,23.77
2019-02-17T06:51:55.368Z,23.73
2019-02-17T06:54:22.037Z,23.78
2019-02-17T06:56:48.701Z,23.81
2019-02-17T06:59:15.355Z,23.82
2019-02-17T07:01:42.060Z,23.86
2019-02-17T07:04:08.714Z,23.87
2019-02-17T07:06:35.383Z,23.88
2019-02-17T07:09:02.029Z,23.94
2019-02-17T07:11:28.796Z,23.98
2019-02-17T07:13:55.430Z,24.02
2019-02-17T07:16:22.133Z,24.03
2019-02-17T07:18:50.635Z,24.07
2019-02-17T07:21:15.423Z,24.08
2019-02-17T07:23:42.086Z,24.06
2019-02-17T07:26:08.735Z,24.17
2019-02-17T07:28:35.441Z,24.16
2019-02-17T07:31:02.099Z,24.14
2019-02-17T07:33:28.762Z,24.16
2019-02-17T07:35:55.416Z,24.25
2019-02-17T07:38:22.124Z,24.22
2019-02-17T07:40:48.783Z,24.19
2019-02-17T07:43:15.444Z,24.23
2019-02-17T07:45:42.154Z,24.26
2019-02-17T07:48:08.906Z,24.21
2019-02-17T07:50:35.611Z,24.25
2019-02-17T07:53:02.256Z,24.26
2019-02-17T07:55:28.908Z,24.24
2019-02-17T07:57:55.579Z,24.24
2019-02-17T08:00:22.226Z,24.28
2019-02-17T08:02:49.608Z,24.30
2019-02-17T08:05:15.617Z,24.27
2019-02-17T08:07:42.315Z,24.28
2019-02-17T08:10:08.974Z,24.29
2019-02-17T08:12:35.690Z,24.30
2019-02-17T08:15:02.346Z,24.31
2019-02-17T08:17:29.006Z,24.33
2019-02-17T08:19:55.673Z,24.28
2019-02-17T08:22:22.333Z,24.33
2019-02-17T08:24:49.052Z,24.33
2019-02-17T08:27:15.712Z,24.34
2019-02-17T08:29:42.355Z,24.32
2019-02-17T08:32:09.029Z,24.32
2019-02-17T08:34:35.691Z,24.31
2019-02-17T08:37:02.360Z,24.34
2019-02-17T08:39:29.027Z,24.31
2019-02-17T08:41:55.671Z,24.31
2019-02-17T08:44:22.315Z,24.34
2019-02-17T08:46:49.029Z,24.34
2019-02-17T08:49:15.678Z,24.34
2019-02-17T08:51:42.497Z,24.33
2019-02-17T08:54:09.165Z,24.36
2019-02-17T08:56:35.811Z,24.37
2019-02-17T08:59:02.516Z,24.37
2019-02-17T09:01:29.183Z,24.36
2019-02-17T09:03:55.854Z,24.40
2019-02-17T09:06:22.514Z,24.41
2019-02-17T09:08:49.213Z,24.42
2019-02-17T09:11:15.872Z,24.44
2019-02-17T09:13:42.591Z,24.44
2019-02-17T09:16:09.244Z,24.45
2019-02-17T09:18:35.904Z,24.46
2019-02-17T09:21:02.607Z,24.49
2019-02-17T09:23:29.269Z,24.48
2019-02-17T09:25:55.969Z,24.50
2019-02-17T09:28:22.614Z,24.47
2019-02-17T09:30:49.286Z,24.51
2019-02-17T09:33:15.941Z,24.52
2019-02-17T09:35:42.591Z,24.54
2019-02-17T09:38:09.256Z,24.51
2019-02-17T09:40:35.911Z,24.54
2019-02-17T09:43:02.611Z,24.53
2019-02-17T09:45:29.281Z,24.52
2019-02-17T09:47:55.961Z,24.54
2019-02-17T09:50:22.680Z,24.54
2019-02-17T09:52:49.342Z,24.55
2019-02-17T09:55:16.045Z,24.52
2019-02-17T09:57:42.761Z,24.56
2019-02-17T10:00:09.413Z,24.53
2019-02-17T10:02:36.224Z,24.57
2019-02-17T10:05:02.876Z,24.58
2019-02-17T10:07:29.524Z,24.62
2019-02-17T10:09:56.190Z,24.58
2019-02-17T10:12:22.897Z,24.65
2019-02-17T10:14:49.553Z,24.62
2019-02-17T10:17:16.230Z,24.65
2019-02-17T10:19:42.894Z,24.65
2019-02-17T10:22:09.573Z,24.69
2019-02-17T10:24:36.233Z,24.67
2019-02-17T10:27:02.898Z,24.72
2019-02-17T10:29:29.559Z,24.70
2019-02-17T10:31:56.272Z,24.72
2019-02-17T10:34:22.925Z,24.70
2019-02-17T10:36:49.603Z,24.75
2019-02-17T10:39:16.251Z,24.73
2019-02-17T10:41:42.946Z,24.75
2019-02-17T10:44:09.686Z,24.76
2019-02-17T10:46:36.267Z,24.76
2019-02-17T10:49:02.919Z,24.74
2019-02-17T10:51:29.601Z,24.80
2019-02-17T10:53:56.339Z,24.80
2019-02-17T10:56:22.968Z,24.80
2019-02-17T10:58:49.626Z,24.82
2019-02-17T11:01:16.284Z,24.80
2019-02-17T11:03:42.955Z,24.82
2019-02-17T11:06:09.651Z,24.79
2019-02-17T11:08:36.315Z,24.81
2019-02-17T11:11:02.972Z,24.84
2019-02-17T11:13:29.681Z,24.86
2019-02-17T11:15:56.359Z,24.85
2019-02-17T11:18:23.022Z,24.88
2019-02-17T11:20:49.973Z,24.84
2019-02-17T11:23:16.620Z,24.86
2019-02-17T11:25:43.286Z,24.88
2019-02-17T11:28:09.967Z,24.89
2019-02-17T11:30:36.622Z,24.93
2019-02-17T11:33:03.311Z,24.94
2019-02-17T11:35:30.077Z,24.95
2019-02-17T11:37:56.691Z,24.92
2019-02-17T11:40:23.376Z,24.94
2019-02-17T11:42:50.033Z,24.94
2019-02-17T11:45:16.678Z,24.91
2019-02-17T11:47:43.349Z,24.86
2019-02-17T11:50:10.023Z,24.88
2019-02-17T11:52:36.692Z,24.83
2019-02-17T11:55:03.347Z,24.82
2019-02-17T11:57:30.076Z,24.80
2019-02-17T11:59:56.726Z,24.83
2019-02-17T12:02:25.231Z,24.80
2019-02-17T12:04:50.103Z,24.80
2019-02-17T12:07:16.750Z,24.79
2019-02-17T12:09:43.428Z,24.80
2019-02-17T12:12:10.075Z,24.80
2019-02-17T12:14:36.742Z,24.79
2019-02-17T12:17:03.407Z,24.80
2019-02-17T12:19:30.097Z,24.76
2019-02-17T12:21:56.752Z,24.80
2019-02-17T12:24:23.470Z,24.78
2019-02-17T12:26:50.159Z,24.81
2019-02-17T12:29:16.807Z,24.76
2019-02-17T12:31:43.473Z,24.79
2019-02-17T12:34:10.120Z,24.72
2019-02-17T12:36:36.848Z,24.78
2019-02-17T12:39:03.501Z,24.75
2019-02-17T12:41:30.178Z,24.78
2019-02-17T12:43:56.894Z,24.72
2019-02-17T12:46:23.634Z,24.73
2019-02-17T12:48:50.280Z,24.76
2019-02-17T12:51:17.040Z,24.79
2019-02-17T12:53:43.701Z,24.80
2019-02-17T12:56:10.367Z,24.78
2019-02-17T12:58:37.088Z,24.77
2019-02-17T13:01:03.818Z,24.79
2019-02-17T13:03:30.489Z,24.81
2019-02-17T13:05:57.142Z,24.74
2019-02-17T13:08:23.808Z,24.78
2019-02-17T13:10:50.518Z,24.77
2019-02-17T13:13:17.179Z,24.78
2019-02-17T13:15:43.854Z,24.79
2019-02-17T13:18:10.517Z,24.81
2019-02-17T13:20:37.198Z,24.76
2019-02-17T13:23:03.882Z,24.80
2019-02-17T13:25:30.587Z,24.78
2019-02-17T13:27:57.248Z,24.82
2019-02-17T13:30:23.895Z,24.81
2019-02-17T13:32:50.625Z,24.82
2019-02-17T13:35:17.271Z,24.83
2019-02-17T13:37:43.980Z,24.82
2019-02-17T13:40:10.641Z,24.84
2019-02-17T13:42:37.302Z,24.79
2019-02-17T13:45:04.032Z,24.85
2019-02-17T13:47:30.740Z,24.78
2019-02-17T13:49:57.409Z,24.83
2019-02-17T13:52:24.099Z,24.76
2019-02-17T13:54:50.780Z,24.82
2019-02-17T13:57:17.538Z,24.82
2019-02-17T13:59:44.183Z,24.83
2019-02-17T14:02:10.830Z,24.81
2019-02-17T14:04:37.498Z,24.78
2019-02-17T14:07:04.165Z,24.81
2019-02-17T14:09:30.878Z,24.79
2019-02-17T14:11:57.539Z,24.67
2019-02-17T14:14:24.229Z,24.72
2019-02-17T14:16:50.882Z,24.49
2019-02-17T14:19:17.601Z,24.43
2019-02-17T14:21:44.259Z,24.46
2019-02-17T14:24:10.911Z,24.58
2019-02-17T14:26:37.602Z,24.67
2019-02-17T14:29:04.250Z,24.71
2019-02-17T14:31:30.964Z,24.73
2019-02-17T14:33:58.798Z,24.79
2019-02-17T14:36:24.341Z,24.79
2019-02-17T14:38:51.015Z,24.77
2019-02-17T14:41:17.731Z,24.81
2019-02-17T14:43:44.395Z,24.82
2019-02-17T14:46:11.050Z,24.85
2019-02-17T14:48:37.690Z,24.87
2019-02-17T14:51:04.353Z,24.87
2019-02-17T14:53:31.060Z,24.89
2019-02-17T14:55:57.712Z,24.89
2019-02-17T14:58:24.480Z,24.88
2019-02-17T15:00:51.133Z,24.90
2019-02-17T15:03:17.785Z,24.90
2019-02-17T15:05:44.453Z,24.91
2019-02-17T15:08:11.103Z,24.93
2019-02-17T15:10:37.778Z,24.89
2019-02-17T15:13:04.435Z,24.86
2019-02-17T15:15:31.105Z,24.92
2019-02-17T15:17:59.080Z,24.86
2019-02-17T15:20:24.487Z,24.89
2019-02-17T15:22:51.130Z,24.86
2019-02-17T15:25:17.774Z,24.86
2019-02-17T15:27:44.496Z,24.80
2019-02-17T15:30:11.149Z,24.84
2019-02-17T15:32:37.844Z,24.85
2019-02-17T15:35:04.471Z,24.81
2019-02-17T15:37:31.143Z,24.76
2019-02-17T15:39:57.795Z,24.71
2019-02-17T15:42:24.559Z,24.69
2019-02-17T15:44:51.221Z,24.63
2019-02-17T15:47:17.888Z,24.64
2019-02-17T15:49:44.552Z,24.66
2019-02-17T15:52:11.254Z,24.63
2019-02-17T15:54:37.919Z,24.63
2019-02-17T15:57:04.614Z,24.63
2019-02-17T15:59:31.282Z,24.61
2019-02-17T16:01:57.933Z,24.61
2019-02-17T16:04:28.511Z,24.58
2019-02-17T16:06:51.296Z,24.59
2019-02-17T16:09:17.949Z,24.55
2019-02-17T16:11:44.600Z,24.62
2019-02-17T16:14:11.242Z,24.52
2019-02-17T16:16:38.000Z,24.59
2019-02-17T16:19:04.815Z,24.52
2019-02-17T16:21:31.474Z,24.49
2019-02-17T16:23:58.123Z,24.47
2019-02-17T16:26:24.840Z,24.51
2019-02-17T16:28:53.705Z,24.47
2019-02-17T16:31:20.362Z,24.46
2019-02-17T16:33:47.046Z,24.42
2019-02-17T16:36:13.763Z,24.44
2019-02-17T16:38:40.474Z,24.36
2019-02-17T16:41:07.125Z,24.38
2019-02-17T16:43:33.827Z,24.31
2019-02-17T16:46:00.497Z,24.35
2019-02-17T16:48:27.231Z,24.31
2019-02-17T16:50:53.929Z,24.30
2019-02-17T16:53:20.638Z,24.31
2019-02-17T16:55:47.287Z,24.27
2019-02-17T16:58:13.955Z,24.27
2019-02-17T17:00:40.759Z,24.26
2019-02-17T17:03:07.467Z,24.22
2019-02-17T17:05:34.113Z,24.21
2019-02-17T17:08:00.814Z,24.24
2019-02-17T17:10:27.485Z,24.19
2019-02-17T17:12:54.625Z,24.21
2019-02-17T17:15:21.270Z,24.19
2019-02-17T17:17:48.132Z,24.17
2019-02-17T17:20:14.602Z,24.15
2019-02-17T17:22:41.261Z,24.15
2019-02-17T17:25:08.050Z,24.15
2019-02-17T17:27:34.707Z,24.13
2019-02-17T17:30:01.354Z,24.11
2019-02-17T17:32:28.076Z,24.12
2019-02-17T17:34:58.885Z,24.10
2019-02-17T17:37:21.444Z,24.05
2019-02-17T17:39:48.110Z,24.05
2019-02-17T17:42:14.755Z,24.08
2019-02-17T17:44:41.427Z,24.08
2019-02-17T17:47:08.080Z,24.01
2019-02-17T17:49:34.750Z,24.04
2019-02-17T17:52:01.417Z,24.02
2019-02-17T17:54:28.219Z,23.98
2019-02-17T17:56:54.875Z,24.01
2019-02-17T17:59:21.532Z,24.00
2019-02-17T18:01:48.204Z,24.00
2019-02-17T18:04:14.879Z,23.97
2019-02-17T18:06:41.542Z,24.01
2019-02-17T18:09:08.255Z,23.90
2019-02-17T18:11:34.912Z,23.96
2019-02-17T18:14:01.628Z,23.92
2019-02-17T18:16:28.334Z,23.96
2019-02-17T18:18:55.006Z,23.89
2019-02-17T18:21:21.657Z,23.95
2019-02-17T18:23:48.314Z,23.92
2019-02-17T18:26:14.978Z,23.93
2019-02-17T18:28:41.634Z,23.92
2019-02-17T18:31:08.290Z,23.94
2019-02-17T18:33:34.994Z,23.90
2019-02-17T18:36:01.643Z,23.93
2019-02-17T18:38:28.373Z,23.86
2019-02-17T18:40:55.055Z,23.89
2019-02-17T18:43:21.702Z,23.85
2019-02-17T18:45:48.523Z,23.86
2019-02-17T18:48:15.235Z,23.80
2019-02-17T18:50:41.906Z,23.84
2019-02-17T18:53:08.563Z,23.83
2019-02-17T18:55:35.228Z,23.84
2019-02-17T18:58:01.944Z,23.80
2019-02-17T19:00:28.585Z,23.78
2019-02-17T19:02:55.233Z,23.76
2019-02-17T19:05:31.558Z,23.74
2019-02-17T19:07:48.639Z,23.77
2019-02-17T19:10:15.299Z,23.74
2019-02-17T19:12:41.944Z,23.75
2019-02-17T19:15:08.672Z,23.75
2019-02-17T19:17:35.292Z,23.74
2019-02-17T19:20:02.013Z,23.73
2019-02-17T19:22:28.709Z,23.70
2019-02-17T19:24:55.421Z,23.71
2019-02-17T19:27:22.064Z,23.71
2019-02-17T19:29:48.787Z,23.74
2019-02-17T19:32:15.436Z,23.69
2019-02-17T19:34:42.102Z,23.67
2019-02-17T19:37:08.848Z,23.72
2019-02-17T19:39:35.522Z,23.71
2019-02-17T19:42:02.225Z,23.73
2019-02-17T19:44:28.880Z,23.80
2019-02-17T19:46:55.560Z,23.77
2019-02-17T19:49:22.226Z,23.81
2019-02-17T19:51:51.635Z,23.82
2019-02-17T19:54:18.294Z,23.79
2019-02-17T19:56:44.946Z,23.79
2019-02-17T19:59:11.617Z,23.83
2019-02-17T20:01:38.275Z,23.82
2019-02-17T20:04:04.943Z,23.85
2019-02-17T20:06:31.637Z,23.81
2019-02-17T20:08:58.371Z,23.81
2019-02-17T20:11:25.023Z,23.86
2019-02-17T20:13:51.715Z,23.80
2019-02-17T20:16:18.434Z,23.82
2019-02-17T20:18:45.120Z,23.80
2019-02-17T20:21:11.765Z,23.86
2019-02-17T20:23:38.481Z,23.84
2019-02-17T20:26:05.140Z,23.83
2019-02-17T20:28:42.781Z,23.83
2019-02-17T20:30:58.488Z,23.83
2019-02-17T20:33:25.133Z,23.84
2019-02-17T20:36:01.805Z,23.81
2019-02-17T20:38:18.437Z,23.83
2019-02-17T20:40:45.161Z,23.87
2019-02-17T20:43:11.817Z,23.84
2019-02-17T20:45:38.518Z,23.81
2019-02-17T20:48:05.190Z,23.81
2019-02-17T20:50:31.846Z,23.79
2019-02-17T20:52:58.565Z,23.84
2019-02-17T20:55:25.232Z,23.78
2019-02-17T20:57:51.965Z,23.78
2019-02-17T21:00:18.558Z,23.76
2019-02-17T21:02:45.268Z,23.78
2019-02-17T21:05:11.969Z,23.79
2019-02-17T21:07:38.690Z,23.77
2019-02-17T21:10:05.343Z,23.77
2019-02-17T21:12:32.042Z,23.75
2019-02-17T21:14:58.750Z,23.76
2019-02-17T21:17:25.398Z,23.77
2019-02-17T21:19:52.115Z,23.79
2019-02-17T21:22:18.784Z,23.76
2019-02-17T21:24:45.434Z,23.75
2019-02-17T21:27:12.139Z,23.72
2019-02-17T21:29:38.792Z,23.76
2019-02-17T21:32:05.457Z,23.74
2019-02-17T21:34:32.125Z,23.73
2019-02-17T21:36:58.829Z,23.69
2019-02-17T21:39:25.496Z,23.72
2019-02-17T21:41:52.198Z,23.68
2019-02-17T21:44:18.872Z,23.65
2019-02-17T21:46:45.527Z,23.67
2019-02-17T21:49:12.328Z,23.65
2019-02-17T21:51:38.992Z,23.71
2019-02-17T21:54:05.669Z,23.69
2019-02-17T21:56:32.331Z,23.71
2019-02-17T21:58:59.011Z,23.71
2019-02-17T22:01:25.729Z,23.69
2019-02-17T22:03:52.516Z,23.66
2019-02-17T22:06:19.226Z,23.67
2019-02-17T22:08:45.907Z,23.66
2019-02-17T22:11:12.556Z,23.65
2019-02-17T22:13:39.252Z,23.62
2019-02-17T22:16:05.901Z,23.55
2019-02-17T22:18:32.610Z,23.29
2019-02-17T22:20:59.262Z,23.11
2019-02-17T22:23:25.971Z,23.08
2019-02-17T22:25:52.632Z,23.05
2019-02-17T22:28:19.398Z,23.16
2019-02-17T22:30:46.048Z,23.30
2019-02-17T22:33:12.718Z,23.31
2019-02-17T22:35:39.514Z,23.45
2019-02-17T22:38:06.162Z,23.43
2019-02-17T22:40:32.922Z,23.46
2019-02-17T22:42:59.609Z,23.50
2019-02-17T22:45:26.251Z,23.49
2019-02-17T22:47:52.984Z,23.53
2019-02-17T22:50:19.636Z,23.55
2019-02-17T22:52:46.325Z,23.56
2019-02-17T22:55:12.966Z,23.55
2019-02-17T22:57:39.636Z,23.57
2019-02-17T23:00:06.282Z,23.64
2019-02-17T23:02:32.990Z,23.60
2019-02-17T23:04:59.653Z,23.65
2019-02-17T23:07:26.343Z,23.63
2019-02-17T23:09:52.988Z,23.62
2019-02-17T23:12:19.631Z,23.63
2019-02-17T23:14:46.307Z,23.66
2019-02-17T23:17:12.965Z,23.66
2019-02-17T23:19:39.631Z,23.64
2019-02-17T23:22:06.284Z,23.66
2019-02-17T23:24:32.983Z,23.60
2019-02-17T23:26:59.642Z,23.64
2019-02-17T23:29:26.336Z,23.65
2019-02-17T23:31:52.987Z,23.61
2019-02-17T23:34:19.725Z,23.65
2019-02-17T23:36:46.391Z,23.63
2019-02-17T23:39:13.053Z,23.65
2019-02-17T23:41:39.725Z,23.66
2019-02-17T23:44:06.384Z,23.65
2019-02-17T23:46:33.128Z,23.67
2019-02-17T23:48:59.788Z,23.67
2019-02-17T23:51:26.537Z,23.66
2019-02-17T23:53:53.196Z,23.68
2019-02-17T23:56:19.862Z,23.65
2019-02-17T23:58:46.508Z,23.65
